createdAt,value
2023-01-10T00:02:18.869Z,1.50
2023-01-10T00:04:47.581Z,1.47
2023-01-10T00:07:15.703Z,1.40
2023-01-10T00:09:44.227Z,2.63
2023-01-10T00:12:29.665Z,1.50
2023-01-10T00:14:57.781Z,1.33
2023-01-10T00:17:27.762Z,1.43
2023-01-10T00:19:56.359Z,1.60
2023-01-10T00:22:25.635Z,1.70
2023-01-10T00:24:54.010Z,1.60
2023-01-10T00:27:23.630Z,1.30
2023-01-10T00:29:53.225Z,1.60
2023-01-10T00:32:22.042Z,1.83
2023-01-10T00:34:51.850Z,2.40
2023-01-10T00:37:20.000Z,2.03
2023-01-10T00:39:50.815Z,1.37
2023-01-10T00:42:36.493Z,1.87
2023-01-10T00:45:04.971Z,1.30
2023-01-10T00:47:33.548Z,1.40
2023-01-10T00:50:06.261Z,2.50
2023-01-10T00:52:34.807Z,1.20
2023-01-10T00:55:02.930Z,2.40
2023-01-10T00:57:31.585Z,1.63
2023-01-10T00:59:59.642Z,1.57
2023-01-10T01:02:28.290Z,1.03
2023-01-10T01:04:56.499Z,1.37
2023-01-10T01:07:25.930Z,1.07
2023-01-10T01:10:11.739Z,1.97
2023-01-10T01:12:39.819Z,1.10
2023-01-10T01:15:09.492Z,1.70
2023-01-10T01:17:37.579Z,1.40
2023-01-10T01:20:07.330Z,1.50
2023-01-10T01:22:37.629Z,1.00
2023-01-10T01:25:07.016Z,1.27
2023-01-10T01:27:38.136Z,1.17
2023-01-10T01:30:07.843Z,1.30
2023-01-10T01:32:36.835Z,1.20
2023-01-10T01:35:06.188Z,1.20
2023-01-10T01:37:35.255Z,1.30
2023-01-10T01:40:05.409Z,1.10
2023-01-10T01:42:36.003Z,2.10
2023-01-10T01:45:41.271Z,0.97
2023-01-10T01:48:18.746Z,1.77
2023-01-10T01:50:53.140Z,1.00
2023-01-10T01:53:27.702Z,0.90
2023-01-10T01:56:01.733Z,1.33
2023-01-10T01:58:36.919Z,1.43
2023-01-10T02:01:05.709Z,1.23
2023-01-10T02:03:34.966Z,1.10
2023-01-10T02:06:03.608Z,0.90
2023-01-10T02:08:31.894Z,0.83
2023-01-10T02:11:08.950Z,0.87
2023-01-10T02:13:41.677Z,1.00
2023-01-10T02:16:11.259Z,0.90
2023-01-10T02:18:43.021Z,1.53
2023-01-10T02:21:36.884Z,0.80
2023-01-10T02:24:32.284Z,1.23
2023-01-10T02:27:12.517Z,1.37
2023-01-10T02:30:19.661Z,1.57
2023-01-10T02:33:04.495Z,1.40
2023-01-10T02:35:56.888Z,2.03
2023-01-10T02:38:36.286Z,1.40
2023-01-10T02:41:11.278Z,1.30
2023-01-10T02:43:45.643Z,1.47
2023-01-10T02:46:18.028Z,3.13
2023-01-10T02:48:48.050Z,1.73
2023-01-10T02:51:21.507Z,1.57
2023-01-10T02:53:55.008Z,1.60
2023-01-10T02:57:13.679Z,1.90
2023-01-10T03:00:18.730Z,1.90
2023-01-10T03:02:59.083Z,1.90
2023-01-10T03:05:39.080Z,2.67
2023-01-10T03:08:24.254Z,3.10
2023-01-10T03:10:57.704Z,2.27
2023-01-10T03:13:31.035Z,1.70
2023-01-10T03:16:01.587Z,1.90
2023-01-10T03:18:34.403Z,1.93
2023-01-10T03:21:07.073Z,1.80
2023-01-10T03:23:36.188Z,2.53
2023-01-10T03:26:06.839Z,2.50
2023-01-10T03:32:19.254Z,2.00
2023-01-10T03:34:48.255Z,2.40
2023-01-10T03:37:23.092Z,2.27
2023-01-10T03:39:59.534Z,2.23
2023-01-10T03:42:53.202Z,2.20
2023-01-10T03:45:26.568Z,2.73
2023-01-10T03:47:57.048Z,2.30
2023-01-10T03:50:27.698Z,2.43
2023-01-10T03:52:57.870Z,4.33
2023-01-10T03:55:29.613Z,2.90
2023-01-10T03:57:57.725Z,2.00
2023-01-10T04:00:26.696Z,2.30
2023-01-10T04:02:55.788Z,2.43
2023-01-10T04:05:24.403Z,2.70
2023-01-10T04:07:52.533Z,2.40
2023-01-10T04:10:24.557Z,3.53
2023-01-10T04:12:53.350Z,2.63
2023-01-10T04:15:22.533Z,2.47
2023-01-10T04:17:51.134Z,2.43
2023-01-10T04:20:19.461Z,2.37
2023-01-10T04:22:50.315Z,2.67
2023-01-10T04:25:18.929Z,2.63
2023-01-10T04:27:50.684Z,3.13
2023-01-10T04:30:19.795Z,2.47
2023-01-10T04:32:49.735Z,3.00
2023-01-10T04:35:18.059Z,2.70
2023-01-10T04:37:46.670Z,3.90
2023-01-10T04:40:17.649Z,2.83
2023-01-10T04:42:45.848Z,2.80
2023-01-10T04:45:18.218Z,3.20
2023-01-10T04:47:51.040Z,2.87
2023-01-10T04:50:20.117Z,2.97
2023-01-10T04:52:51.449Z,3.08
2023-01-10T04:55:19.570Z,3.03
2023-01-10T04:57:48.691Z,3.57
2023-01-10T05:00:19.004Z,2.57
2023-01-10T05:02:47.800Z,4.47
2023-01-10T05:05:17.226Z,3.80
2023-01-10T05:07:47.816Z,3.40
2023-01-10T05:10:16.069Z,3.80
2023-01-10T05:12:44.702Z,3.70
2023-01-10T05:15:13.817Z,2.87
2023-01-10T05:17:43.783Z,2.87
2023-01-10T05:20:13.990Z,2.60
2023-01-10T05:22:42.622Z,3.08
2023-01-10T05:25:11.221Z,3.00
2023-01-10T05:27:43.695Z,2.73
2023-01-10T05:30:14.035Z,3.35
2023-01-10T05:32:44.096Z,2.77
2023-01-10T05:35:12.494Z,3.77
2023-01-10T05:37:41.123Z,3.10
2023-01-10T05:40:10.818Z,4.53
2023-01-10T05:42:39.103Z,3.27
2023-01-10T05:45:08.056Z,3.03
2023-01-10T05:47:36.694Z,4.28
2023-01-10T05:50:06.911Z,2.97
2023-01-10T05:52:35.051Z,2.83
2023-01-10T05:55:03.241Z,4.00
2023-01-10T05:57:31.378Z,3.23
2023-01-10T05:59:59.975Z,5.00
2023-01-10T06:02:28.272Z,3.03
2023-01-10T06:04:56.526Z,2.97
2023-01-10T06:07:26.646Z,2.70
2023-01-10T06:09:55.689Z,2.40
2023-01-10T06:12:24.058Z,4.60
2023-01-10T06:14:52.221Z,2.83
2023-01-10T06:17:20.369Z,3.97
2023-01-10T06:19:48.560Z,3.40
2023-01-10T06:22:17.155Z,3.47
2023-01-10T06:24:46.625Z,2.63
2023-01-10T06:27:15.267Z,2.57
2023-01-10T06:29:43.880Z,3.93
2023-01-10T06:32:12.027Z,2.30
2023-01-10T06:34:40.663Z,3.43
2023-01-10T06:37:08.904Z,2.27
2023-01-10T06:39:37.107Z,4.00
2023-01-10T06:42:06.737Z,3.27
2023-01-10T06:44:35.317Z,2.93
2023-01-10T06:47:03.462Z,3.57
2023-01-10T06:49:31.660Z,3.23
2023-01-10T06:52:00.282Z,3.27
2023-01-10T06:54:28.450Z,3.10
2023-01-10T06:56:56.567Z,3.33
2023-01-10T06:59:26.577Z,3.67
2023-01-10T07:01:54.827Z,2.80
2023-01-10T07:04:23.547Z,5.13
2023-01-10T07:06:51.682Z,4.03
2023-01-10T07:09:20.313Z,4.80
2023-01-10T07:11:48.515Z,2.17
2023-01-10T07:14:17.098Z,3.53
2023-01-10T07:16:46.618Z,4.33
2023-01-10T07:19:17.738Z,5.90
2023-01-10T07:21:46.318Z,4.03
2023-01-10T07:24:14.433Z,3.60
2023-01-10T07:26:42.552Z,3.07
2023-01-10T07:29:10.889Z,2.03
2023-01-10T07:31:39.094Z,2.60
2023-01-10T07:34:09.090Z,3.27
2023-01-10T07:36:39.440Z,3.53
2023-01-10T07:39:08.226Z,3.53
2023-01-10T07:41:36.825Z,4.57
2023-01-10T07:44:05.507Z,4.73
2023-01-10T07:46:33.738Z,2.93
2023-01-10T07:49:01.913Z,2.80
2023-01-10T07:51:31.916Z,5.20
2023-01-10T07:54:00.107Z,2.77
2023-01-10T07:56:28.843Z,3.03
2023-01-10T07:58:57.415Z,4.67
2023-01-10T08:01:26.175Z,3.77
2023-01-10T08:03:54.991Z,4.17
2023-01-10T08:06:23.183Z,2.57
2023-01-10T08:08:53.232Z,4.43
2023-01-10T08:11:21.484Z,6.00
2023-01-10T08:13:49.635Z,4.03
2023-01-10T08:16:18.385Z,3.57
2023-01-10T08:18:47.096Z,3.20
2023-01-10T08:21:15.751Z,2.40
2023-01-10T08:23:44.364Z,4.33
2023-01-10T08:26:13.896Z,4.80
2023-01-10T08:28:42.513Z,3.33
2023-01-10T08:31:11.724Z,3.00
2023-01-10T08:33:40.518Z,4.50
2023-01-10T08:36:17.009Z,5.20
2023-01-10T08:38:45.719Z,5.87
2023-01-10T08:41:15.989Z,5.00
2023-01-10T08:43:44.146Z,3.60
2023-01-10T08:46:12.320Z,4.77
2023-01-10T08:48:41.083Z,4.47
2023-01-10T08:51:10.901Z,4.60
2023-01-10T08:53:41.585Z,4.20
2023-01-10T08:56:10.403Z,6.10
2023-01-10T08:58:40.485Z,4.83
2023-01-10T09:01:11.909Z,4.77
2023-01-10T09:03:40.997Z,4.03
2023-01-10T09:06:10.020Z,4.73
2023-01-10T09:08:38.771Z,4.00
2023-01-10T09:11:08.038Z,3.27
2023-01-10T09:13:36.143Z,4.57
2023-01-10T09:16:06.672Z,6.57
2023-01-10T09:18:35.017Z,5.03
2023-01-10T09:21:05.754Z,8.07
2023-01-10T09:23:36.935Z,2.53
2023-01-10T09:26:05.807Z,5.13
2023-01-10T09:28:34.218Z,5.47
2023-01-10T09:31:04.809Z,5.17
2023-01-10T09:33:45.672Z,4.40
2023-01-10T09:36:15.862Z,4.38
2023-01-10T09:38:45.003Z,4.90
2023-01-10T09:41:25.090Z,3.88
2023-01-10T09:44:02.462Z,4.00
2023-01-10T09:46:41.443Z,3.33
2023-01-10T09:49:24.238Z,3.83
2023-01-10T09:51:54.512Z,3.83
2023-01-10T09:54:28.614Z,4.23
2023-01-10T09:56:59.453Z,3.17
2023-01-10T09:59:32.829Z,4.90
2023-01-10T10:02:08.200Z,4.13
2023-01-10T10:04:41.287Z,9.43
2023-01-10T10:07:14.542Z,6.00
2023-01-10T10:09:44.719Z,4.63
2023-01-10T10:12:27.921Z,4.13
2023-01-10T10:15:11.119Z,5.80
2023-01-10T10:17:45.791Z,4.07
2023-01-10T10:20:32.830Z,4.23
2023-01-10T10:23:20.064Z,4.53
2023-01-10T10:26:00.786Z,3.17
2023-01-10T10:29:01.849Z,6.10
2023-01-10T10:31:41.149Z,6.23
2023-01-10T10:34:19.227Z,4.00
2023-01-10T10:36:53.568Z,5.83
2023-01-10T10:39:26.414Z,4.57
2023-01-10T10:41:56.730Z,6.07
2023-01-10T10:44:35.835Z,4.40
2023-01-10T10:47:04.777Z,6.70
2023-01-10T10:49:39.563Z,5.90
2023-01-10T10:52:18.666Z,5.50
2023-01-10T10:54:47.968Z,3.53
2023-01-10T10:57:17.047Z,3.80
2023-01-10T10:59:48.163Z,5.67
2023-01-10T11:02:30.051Z,5.53
2023-01-10T11:05:00.781Z,3.72
2023-01-10T11:07:34.710Z,5.77
2023-01-10T11:10:25.366Z,7.03
2023-01-10T11:12:54.549Z,3.43
2023-01-10T11:15:39.422Z,2.90
2023-01-10T11:18:12.163Z,5.50
2023-01-10T11:20:49.030Z,4.37
2023-01-10T11:23:30.647Z,3.40
2023-01-10T11:25:58.850Z,4.83
2023-01-10T11:28:31.124Z,5.73
2023-01-10T11:31:01.473Z,5.07
2023-01-10T11:33:34.148Z,3.87
2023-01-10T11:36:05.119Z,6.67
2023-01-10T11:38:35.570Z,6.40
2023-01-10T11:41:05.776Z,6.00
2023-01-10T11:43:37.282Z,4.07
2023-01-10T11:46:14.454Z,5.57
2023-01-10T11:51:37.091Z,4.43
2023-01-10T11:54:12.205Z,6.60
2023-01-10T11:56:43.484Z,2.77
2023-01-10T11:59:16.565Z,3.97
2023-01-10T12:01:48.204Z,4.13
2023-01-10T12:04:17.725Z,4.20
2023-01-10T12:06:48.351Z,5.60
2023-01-10T12:09:37.300Z,5.75
2023-01-10T12:12:07.758Z,6.05
2023-01-10T12:14:36.169Z,6.43
2023-01-10T12:17:05.309Z,5.75
2023-01-10T12:19:34.101Z,5.93
2023-01-10T12:22:06.321Z,3.77
2023-01-10T12:24:41.006Z,11.32
2023-01-10T12:27:12.690Z,4.10
2023-01-10T12:29:44.316Z,4.73
2023-01-10T12:32:21.258Z,4.77
2023-01-10T12:34:58.382Z,3.90
2023-01-10T12:37:37.921Z,6.07
2023-01-10T12:40:15.638Z,5.80
2023-01-10T12:43:10.950Z,5.80
2023-01-10T12:45:43.672Z,6.47
2023-01-10T12:48:18.113Z,3.88
2023-01-10T12:50:53.946Z,5.73
2023-01-10T12:53:37.715Z,6.45
2023-01-10T12:56:13.156Z,4.23
2023-01-10T12:58:44.251Z,7.17
2023-01-10T13:01:17.277Z,6.37
2023-01-10T13:03:51.925Z,5.53
2023-01-10T13:06:28.640Z,3.88
2023-01-10T13:08:58.855Z,4.40
2023-01-10T13:11:33.462Z,3.40
2023-01-10T13:14:04.526Z,5.35
2023-01-10T13:16:40.852Z,3.60
2023-01-10T13:19:28.295Z,4.65
2023-01-10T13:22:21.434Z,6.03
2023-01-10T13:24:58.177Z,4.15
2023-01-10T13:27:32.337Z,4.78
2023-01-10T13:30:00.841Z,4.47
2023-01-10T13:32:32.475Z,5.85
2023-01-10T13:35:15.328Z,5.10
2023-01-10T13:37:45.744Z,5.40
2023-01-10T13:40:23.391Z,5.87
2023-01-10T13:43:23.834Z,5.43
2023-01-10T13:46:50.555Z,7.88
2023-01-10T13:49:44.635Z,8.23
2023-01-10T13:52:32.145Z,3.73
2023-01-10T13:55:03.650Z,4.95
2023-01-10T13:57:55.034Z,5.28
2023-01-10T14:00:43.858Z,4.33
2023-01-10T14:03:50.822Z,5.43
2023-01-10T14:06:41.649Z,4.55
2023-01-10T14:09:40.299Z,3.97
2023-01-10T14:12:18.475Z,6.72
2023-01-10T14:14:54.159Z,4.95
2023-01-10T14:17:25.249Z,4.97
2023-01-10T14:20:07.990Z,4.40
2023-01-10T14:22:39.696Z,6.37
2023-01-10T14:25:17.468Z,5.83
2023-01-10T14:27:48.180Z,4.23
2023-01-10T14:30:20.592Z,5.77
2023-01-10T14:32:52.639Z,6.23
2023-01-10T14:35:24.965Z,4.13
2023-01-10T14:37:56.738Z,7.40
2023-01-10T14:40:30.098Z,5.87
2023-01-10T14:43:03.249Z,5.30
2023-01-10T14:45:36.611Z,6.50
2023-01-10T14:48:27.368Z,6.68
2023-01-10T14:51:12.179Z,5.47
2023-01-10T14:53:41.341Z,7.97
2023-01-10T14:56:22.374Z,4.93
2023-01-10T14:58:51.119Z,10.67
2023-01-10T15:01:24.752Z,5.73
2023-01-10T15:03:54.779Z,9.00
2023-01-10T15:06:26.167Z,6.00
2023-01-10T15:08:59.885Z,6.20
2023-01-10T15:11:30.721Z,5.17
2023-01-10T15:14:04.400Z,8.73
2023-01-10T15:16:33.919Z,8.83
2023-01-10T15:19:02.592Z,6.20
2023-01-10T15:21:32.605Z,7.07
2023-01-10T15:24:00.757Z,5.60
2023-01-10T15:26:33.290Z,7.00
2023-01-10T15:29:10.471Z,5.72
2023-01-10T15:31:42.655Z,5.93
2023-01-10T15:34:15.778Z,4.63
2023-01-10T15:36:51.046Z,5.73
2023-01-10T15:39:23.355Z,7.13
2023-01-10T15:41:56.686Z,6.43
2023-01-10T15:44:35.437Z,6.23
2023-01-10T15:47:04.748Z,4.93
2023-01-10T15:49:33.426Z,6.37
2023-01-10T15:52:03.564Z,5.93
2023-01-10T15:54:34.786Z,6.63
2023-01-10T15:57:08.150Z,5.00
2023-01-10T15:59:39.887Z,7.57
2023-01-10T16:02:23.110Z,6.17
2023-01-10T16:04:53.710Z,5.97
2023-01-10T16:07:27.671Z,6.23
2023-01-10T16:10:00.369Z,5.13
2023-01-10T16:12:54.076Z,5.27
2023-01-10T16:15:25.193Z,5.60
2023-01-10T16:17:54.142Z,5.63
2023-01-10T16:20:25.070Z,7.35
2023-01-10T16:22:55.881Z,7.53
2023-01-10T16:25:29.126Z,5.00
2023-01-10T16:27:57.217Z,4.30
2023-01-10T16:30:28.301Z,8.83
2023-01-10T16:32:59.004Z,7.27
2023-01-10T16:35:27.937Z,5.87
2023-01-10T16:37:59.265Z,5.63
2023-01-10T16:40:29.494Z,7.47
2023-01-10T16:43:14.815Z,6.40
2023-01-10T16:45:43.020Z,5.83
2023-01-10T16:48:11.762Z,5.73
2023-01-10T16:50:41.833Z,6.73
2023-01-10T16:53:13.469Z,6.33
2023-01-10T16:55:43.816Z,10.23
2023-01-10T16:58:14.281Z,8.50
2023-01-10T17:00:44.592Z,8.53
2023-01-10T17:03:17.188Z,7.60
2023-01-10T17:05:45.546Z,5.53
2023-01-10T17:08:18.263Z,7.67
2023-01-10T17:10:48.776Z,6.47
2023-01-10T17:13:23.851Z,5.23
2023-01-10T17:15:52.004Z,7.97
2023-01-10T17:18:20.715Z,5.80
2023-01-10T17:20:49.076Z,5.77
2023-01-10T17:23:18.959Z,6.23
2023-01-10T17:25:49.762Z,5.60
2023-01-10T17:28:19.471Z,8.67
2023-01-10T17:30:48.136Z,8.60
2023-01-10T17:33:16.798Z,7.40
2023-01-10T17:35:46.145Z,8.57
2023-01-10T17:38:17.242Z,5.63
2023-01-10T17:40:48.497Z,8.33
2023-01-10T17:43:19.421Z,9.00
2023-01-10T17:45:49.911Z,12.30
2023-01-10T17:48:20.360Z,7.97
2023-01-10T17:50:50.477Z,9.10
2023-01-10T17:53:19.106Z,6.77
2023-01-10T17:55:49.733Z,9.33
2023-01-10T17:58:19.963Z,8.33
2023-01-10T18:00:48.987Z,11.10
2023-01-10T18:03:17.594Z,8.80
2023-01-10T18:05:52.634Z,9.30
2023-01-10T18:08:22.017Z,8.47
2023-01-10T18:10:52.213Z,9.97
2023-01-10T18:13:21.604Z,9.93
2023-01-10T18:15:52.349Z,9.63
2023-01-10T18:18:23.082Z,10.53
2023-01-10T18:20:53.201Z,10.33
2023-01-10T18:23:25.273Z,8.43
2023-01-10T18:25:57.442Z,8.00
2023-01-10T18:28:39.513Z,12.30
2023-01-10T18:31:11.567Z,10.90
2023-01-10T18:33:39.946Z,8.63
2023-01-10T18:36:10.236Z,8.60
2023-01-10T18:38:38.480Z,8.87
2023-01-10T18:41:09.294Z,8.83
2023-01-10T18:43:37.486Z,8.70
2023-01-10T18:46:07.988Z,8.10
2023-01-10T18:48:36.125Z,6.30
2023-01-10T18:51:05.829Z,9.40
2023-01-10T18:53:34.524Z,5.90
2023-01-10T18:56:05.155Z,7.97
2023-01-10T18:58:36.718Z,6.00
2023-01-10T19:01:09.253Z,7.63
2023-01-10T19:03:37.911Z,8.90
2023-01-10T19:06:10.501Z,10.83
2023-01-10T19:08:39.884Z,9.20
2023-01-10T19:11:14.340Z,5.17
2023-01-10T19:13:45.777Z,6.83
2023-01-10T19:16:18.513Z,8.87
2023-01-10T19:18:50.526Z,8.17
2023-01-10T19:21:18.656Z,10.23
2023-01-10T19:23:49.175Z,13.23
2023-01-10T19:26:17.737Z,6.87
2023-01-10T19:28:48.857Z,7.27
2023-01-10T19:31:18.275Z,5.97
2023-01-10T19:33:48.572Z,6.87
2023-01-10T19:36:17.038Z,6.90
2023-01-10T19:38:46.055Z,5.50
2023-01-10T19:41:15.486Z,4.50
2023-01-10T19:43:43.792Z,5.80
2023-01-10T19:46:15.748Z,6.03
2023-01-10T19:48:44.383Z,5.30
2023-01-10T19:51:14.381Z,5.83
2023-01-10T19:53:45.966Z,6.57
2023-01-10T19:56:18.369Z,5.67
2023-01-10T19:58:47.318Z,6.20
2023-01-10T20:01:19.686Z,6.47
2023-01-10T20:03:48.672Z,5.30
2023-01-10T20:06:20.264Z,7.10
2023-01-10T20:08:49.237Z,5.07
2023-01-10T20:11:18.676Z,8.83
2023-01-10T20:13:49.767Z,6.27
2023-01-10T20:16:21.968Z,5.27
2023-01-10T20:18:50.838Z,5.67
2023-01-10T20:21:20.772Z,4.40
2023-01-10T20:23:49.100Z,5.20
2023-01-10T20:26:19.316Z,3.97
2023-01-10T20:28:48.571Z,5.43
2023-01-10T20:31:20.783Z,6.37
2023-01-10T20:33:50.078Z,6.33
2023-01-10T20:36:21.268Z,10.33
2023-01-10T20:38:50.402Z,9.10
2023-01-10T20:41:21.747Z,7.90
2023-01-10T20:43:50.332Z,8.00
2023-01-10T20:46:22.074Z,7.37
2023-01-10T20:48:50.835Z,6.30
2023-01-10T20:51:22.070Z,6.67
2023-01-10T20:53:51.378Z,5.83
2023-01-10T20:56:22.279Z,7.00
2023-01-10T20:58:51.727Z,6.40
2023-01-10T21:01:33.602Z,6.63
2023-01-10T21:04:03.377Z,7.57
2023-01-10T21:06:31.842Z,5.73
2023-01-10T21:09:00.591Z,8.60
2023-01-10T21:11:29.340Z,5.47
2023-01-10T21:13:58.511Z,5.83
2023-01-10T21:16:28.121Z,6.23
2023-01-10T21:18:57.421Z,6.13
2023-01-10T21:21:25.566Z,6.50
2023-01-10T21:23:56.049Z,4.03
2023-01-10T21:26:24.606Z,6.17
2023-01-10T21:28:53.252Z,7.03
2023-01-10T21:31:22.709Z,4.83
2023-01-10T21:33:52.343Z,4.43
2023-01-10T21:36:20.459Z,5.93
2023-01-10T21:38:49.620Z,4.90
2023-01-10T21:41:40.775Z,3.83
2023-01-10T21:44:09.437Z,4.63
2023-01-10T21:46:38.169Z,5.03
2023-01-10T21:49:08.162Z,5.73
2023-01-10T21:51:36.321Z,4.60
2023-01-10T21:54:05.085Z,5.17
2023-01-10T21:56:33.324Z,5.47
2023-01-10T21:59:01.977Z,6.23
2023-01-10T22:01:30.478Z,3.57
2023-01-10T22:03:58.968Z,6.03
2023-01-10T22:06:28.539Z,5.50
2023-01-10T22:08:56.715Z,6.13
2023-01-10T22:11:24.856Z,5.20
2023-01-10T22:13:54.561Z,4.10
2023-01-10T22:16:23.202Z,3.83
2023-01-10T22:18:51.829Z,6.10
2023-01-10T22:21:20.019Z,4.23
2023-01-10T22:23:50.009Z,6.10
2023-01-10T22:26:18.195Z,3.70
2023-01-10T22:28:46.317Z,4.00
2023-01-10T22:31:14.725Z,4.17
2023-01-10T22:33:43.139Z,4.57
2023-01-10T22:36:15.733Z,3.33
2023-01-10T22:38:44.563Z,6.07
2023-01-10T22:41:16.767Z,5.47
2023-01-10T22:43:45.453Z,5.97
2023-01-10T22:46:16.322Z,4.93
2023-01-10T22:48:45.149Z,5.30
2023-01-10T22:51:13.819Z,5.87
2023-01-10T22:53:42.055Z,3.33
2023-01-10T22:56:12.349Z,4.27
2023-01-10T22:58:48.239Z,3.13
2023-01-10T23:01:18.079Z,4.23
2023-01-10T23:03:46.459Z,3.87
2023-01-10T23:06:15.835Z,4.50
2023-01-10T23:08:43.977Z,3.87
2023-01-10T23:11:14.059Z,5.60
2023-01-10T23:13:43.728Z,6.17
2023-01-10T23:16:14.439Z,4.93
2023-01-10T23:18:42.691Z,3.07
2023-01-10T23:21:10.954Z,4.07
2023-01-10T23:23:39.612Z,4.30
2023-01-10T23:26:10.666Z,5.40
2023-01-10T23:28:40.676Z,3.20
2023-01-10T23:31:10.693Z,6.23
2023-01-10T23:33:38.900Z,4.90
2023-01-10T23:36:07.747Z,3.77
2023-01-10T23:38:36.469Z,3.67
2023-01-10T23:41:05.114Z,3.47
2023-01-10T23:43:34.348Z,3.30
2023-01-10T23:46:03.076Z,4.03
2023-01-10T23:48:32.794Z,3.67
2023-01-10T23:51:01.531Z,2.77
2023-01-10T23:53:29.686Z,6.37
2023-01-10T23:55:58.685Z,2.87
2023-01-10T23:58:27.291Z,3.93
